»·PEaware :: N621AF KLGB-KOXR

N621AF :: KLGB-KOXR

FLIGHT INFORMATION

Flight Status: Arrived
Operator: Privately registered:
United States
More flights under this callsign
Pilot: John F. (26568)
Aircraft: CESSNA 172 SKYHAWK
(C172)
More flights by this aircraft type
Origin: KLGB Long Beach
United States
Destination: KOXR Oxnard
United States
More flights between these airports :: More routes between these airports
Route: SLI V23 POPPR SMO125 SMO VNY
File this flight plan on PilotEdge
Remarks: NO DP
Altitude:
(Current/Filed)
6,000ft
Speed:
(Current/Filed)
105kts
Departed: 13-Feb-20 09:19 AM
Arrived: 13-Feb-20 09:55 AM
Distance/Time
Traveled:
57nm/0:36
Distance/Time
To Go:
Arrived

Flight Plot

Page will automatically refresh every two minutes.


Map Options




Map Legend


Flown Route
Filed Route
Departure Airport
Arrival Airport
Navaid (VOR, NDB)
Fix

Horizontal Profiles

Position Reports

Time Latitude Longitude Heading Altitude Ground
Speed
13-Feb-20 08:42 33.815481 -118.160739 179 50ft 0kts
13-Feb-20 08:43 33.815481 -118.160739 179 50ft 0kts
13-Feb-20 08:44 33.815481 -118.160739 179 50ft 0kts
13-Feb-20 08:45 33.815481 -118.160739 179 50ft 0kts
13-Feb-20 08:46 33.815481 -118.160739 179 50ft 0kts
13-Feb-20 08:47 33.815481 -118.160739 179 50ft 0kts
13-Feb-20 08:48 33.815481 -118.160739 179 50ft 0kts
13-Feb-20 08:49 33.815481 -118.160739 179 50ft 0kts
13-Feb-20 08:50 33.815481 -118.160739 179 50ft 0kts
13-Feb-20 08:51 33.815481 -118.160739 179 50ft 0kts
13-Feb-20 08:52 33.815481 -118.160739 179 50ft 0kts
13-Feb-20 08:53 33.815481 -118.160739 179 50ft 0kts
13-Feb-20 08:54 33.815481 -118.160739 179 50ft 0kts
13-Feb-20 08:55 33.815481 -118.160739 179 50ft 0kts
13-Feb-20 08:56 33.815481 -118.160739 179 50ft 0kts
13-Feb-20 08:57 33.815481 -118.160739 179 50ft 0kts
13-Feb-20 08:58 33.815481 -118.160739 179 50ft 0kts
13-Feb-20 08:59 33.815481 -118.160739 179 50ft 0kts
13-Feb-20 09:00 33.815481 -118.160739 179 50ft 0kts
13-Feb-20 09:01 33.815481 -118.160739 179 50ft 0kts
13-Feb-20 09:02 33.815481 -118.160739 179 50ft 0kts
13-Feb-20 09:03 33.815481 -118.160739 179 50ft 0kts
13-Feb-20 09:04 33.815481 -118.160739 179 50ft 0kts
13-Feb-20 09:05 33.815481 -118.160739 179 50ft 0kts
13-Feb-20 09:06 33.815481 -118.160739 179 50ft 0kts
13-Feb-20 09:07 33.815481 -118.160739 179 50ft 0kts
13-Feb-20 09:08 33.815481 -118.160739 179 50ft 0kts
13-Feb-20 09:09 33.815481 -118.160739 179 50ft 0kts
13-Feb-20 09:10 33.814934 -118.159717 86 49ft 11kts
13-Feb-20 09:11 33.814927 -118.154223 90 41ft 20kts
13-Feb-20 09:12 33.814587 -118.149353 131 36ft 0kts
13-Feb-20 09:13 33.814587 -118.149354 131 36ft 0kts
13-Feb-20 09:14 33.814587 -118.149354 131 36ft 0kts
13-Feb-20 09:15 33.814587 -118.149354 131 36ft 0kts
13-Feb-20 09:16 33.814583 -118.149349 133 36ft 0kts
13-Feb-20 09:17 33.813830 -118.150591 270 37ft 35kts
13-Feb-20 09:18 33.814114 -118.175795 268 870ft 81kts
13-Feb-20 09:19 33.800963 -118.196532 216 1861ft 85kts
13-Feb-20 09:20 33.804667 -118.218943 305 2806ft 85kts
13-Feb-20 09:21 33.821063 -118.244731 308 3095ft 112kts
13-Feb-20 09:22 33.837447 -118.274160 299 3799ft 96kts
13-Feb-20 09:23 33.854682 -118.303016 320 4117ft 113kts
13-Feb-20 09:24 33.879236 -118.330318 323 3986ft 120kts
13-Feb-20 09:25 33.906039 -118.352460 326 3945ft 114kts
13-Feb-20 09:26 33.930982 -118.375443 319 3994ft 113kts
13-Feb-20 09:27 33.954936 -118.398999 322 4090ft 109kts
13-Feb-20 09:28 33.980059 -118.421892 325 4088ft 112kts
13-Feb-20 09:29 34.005085 -118.445018 318 4084ft 114kts
13-Feb-20 09:30 34.034288 -118.457092 350 4083ft 115kts
13-Feb-20 09:31 34.065978 -118.463056 354 4069ft 116kts
13-Feb-20 09:32 34.097754 -118.469792 351 4052ft 116kts
13-Feb-20 09:33 34.120383 -118.489991 272 4046ft 117kts
13-Feb-20 09:34 34.120404 -118.529350 269 4036ft 117kts
13-Feb-20 09:35 34.121898 -118.568605 274 4021ft 117kts
13-Feb-20 09:36 34.122799 -118.608077 281 3992ft 117kts
13-Feb-20 09:37 34.127925 -118.646599 280 3995ft 116kts
13-Feb-20 09:38 34.134760 -118.684575 290 3982ft 115kts
13-Feb-20 09:39 34.145433 -118.721203 289 4012ft 113kts
13-Feb-20 09:40 34.156125 -118.757551 289 4007ft 115kts
13-Feb-20 09:41 34.165343 -118.794574 288 4025ft 115kts
13-Feb-20 09:42 34.173652 -118.831913 287 4031ft 115kts
13-Feb-20 09:43 34.183041 -118.868780 287 4045ft 114kts
13-Feb-20 09:44 34.191476 -118.905928 285 4054ft 114kts
13-Feb-20 09:45 34.195179 -118.943986 273 4053ft 114kts
13-Feb-20 09:46 34.196335 -118.982489 273 3980ft 117kts
13-Feb-20 09:47 34.197603 -119.020992 273 3522ft 109kts
13-Feb-20 09:48 34.199826 -119.058753 276 3009ft 110kts
13-Feb-20 09:49 34.200162 -119.095282 266 2266ft 112kts
13-Feb-20 09:50 34.200248 -119.129007 272 1428ft 86kts
13-Feb-20 09:51 34.200306 -119.155573 277 823ft 73kts
13-Feb-20 09:52 34.200572 -119.178216 272 426ft 68kts
13-Feb-20 09:53 34.200754 -119.200350 269 45ft 56kts
13-Feb-20 09:54 34.200086 -119.207141 170 36ft 2kts
13-Feb-20 09:55 34.199814 -119.206672 100 36ft 9kts
13-Feb-20 09:56 34.199744 -119.202119 90 39ft 15kts
13-Feb-20 09:57 34.199014 -119.199107 237 42ft 0kts
13-Feb-20 09:58 34.199009 -119.199277 274 42ft 0kts

Navigation Log

Ident Type
Flight plan parsing failed, navigation log unavailable